createdAt,value
2023-03-31T00:00:58.069Z,45.58
2023-03-31T00:06:01.953Z,45.00
2023-03-31T00:11:08.026Z,40.30
2023-03-31T00:16:12.300Z,40.97
2023-03-31T00:21:24.902Z,38.30
2023-03-31T00:26:28.485Z,41.13
2023-03-31T00:31:33.193Z,45.42
2023-03-31T00:36:36.904Z,47.55
2023-03-31T00:41:40.322Z,47.72
2023-03-31T00:46:49.124Z,42.80
2023-03-31T00:51:53.950Z,41.85
2023-03-31T00:57:03.453Z,41.35
2023-03-31T01:02:08.384Z,44.53
2023-03-31T01:07:17.056Z,36.05
2023-03-31T01:12:20.434Z,44.20
2023-03-31T01:17:25.304Z,29.50
2023-03-31T01:23:00.124Z,29.40
2023-03-31T01:28:09.423Z,27.48
2023-03-31T01:33:54.761Z,31.42
2023-03-31T01:39:16.120Z,31.23
2023-03-31T01:44:24.739Z,31.88
2023-03-31T01:49:36.332Z,34.50
2023-03-31T01:54:43.787Z,29.27
2023-03-31T01:59:54.144Z,25.65
2023-03-31T02:05:01.698Z,36.23
2023-03-31T02:10:07.410Z,50.03
2023-03-31T02:15:15.965Z,50.28
2023-03-31T02:20:20.760Z,48.47
2023-03-31T02:25:26.203Z,49.57
2023-03-31T02:30:36.389Z,41.08
2023-03-31T02:35:39.415Z,45.97
2023-03-31T02:40:42.459Z,41.40
2023-03-31T02:45:49.432Z,36.88
2023-03-31T02:51:02.921Z,32.78
2023-03-31T02:56:21.436Z,44.07
2023-03-31T03:01:36.970Z,47.58
2023-03-31T03:06:44.041Z,44.45
2023-03-31T03:11:59.529Z,36.60
2023-03-31T03:17:07.915Z,29.13
2023-03-31T03:22:11.086Z,37.55
2023-03-31T03:27:13.958Z,37.20
2023-03-31T03:32:18.195Z,32.92
2023-03-31T03:37:21.053Z,33.87
2023-03-31T03:42:23.876Z,32.23
2023-03-31T03:47:28.103Z,33.87
2023-03-31T03:52:31.096Z,35.38
2023-03-31T03:57:33.918Z,37.05
2023-03-31T04:02:38.251Z,35.60
2023-03-31T04:08:06.236Z,31.40
2023-03-31T04:13:09.035Z,30.63
2023-03-31T04:18:18.745Z,30.35
2023-03-31T04:23:26.511Z,35.33
2023-03-31T04:28:35.123Z,36.22
2023-03-31T04:33:39.943Z,39.65
2023-03-31T04:38:46.956Z,40.20
2023-03-31T04:43:49.768Z,28.10
2023-03-31T04:48:54.063Z,28.87
2023-03-31T04:53:56.948Z,24.35
2023-03-31T04:58:59.772Z,19.80
2023-03-31T05:04:04.560Z,20.10
2023-03-31T05:09:09.622Z,23.77
2023-03-31T05:14:12.533Z,24.15
2023-03-31T05:19:18.259Z,33.13
2023-03-31T05:24:21.245Z,32.97
2023-03-31T05:29:24.808Z,33.65
2023-03-31T05:34:29.140Z,36.85
2023-03-31T05:39:33.123Z,36.95
2023-03-31T05:44:36.073Z,32.07
2023-03-31T05:49:40.265Z,31.00
2023-03-31T05:54:44.306Z,32.80
2023-03-31T05:59:47.155Z,42.00
2023-03-31T06:04:52.124Z,35.67
2023-03-31T06:09:55.256Z,27.15
2023-03-31T06:14:58.067Z,27.73
2023-03-31T06:20:07.647Z,28.08
2023-03-31T06:25:19.071Z,28.67
2023-03-31T06:30:22.027Z,27.17
2023-03-31T06:35:26.462Z,27.67
2023-03-31T06:40:29.294Z,27.63
2023-03-31T06:45:32.198Z,27.30
2023-03-31T06:50:38.734Z,25.63
2023-03-31T06:55:41.585Z,24.47
2023-03-31T07:00:46.124Z,26.10
2023-03-31T07:05:51.400Z,26.52
2023-03-31T07:10:57.665Z,21.52
2023-03-31T07:16:00.621Z,26.60
2023-03-31T07:21:09.655Z,24.60
2023-03-31T07:26:13.297Z,22.23
2023-03-31T07:31:16.643Z,21.80
2023-03-31T07:36:21.755Z,23.63
2023-03-31T07:41:26.345Z,19.13
2023-03-31T07:46:30.389Z,19.60
2023-03-31T07:51:35.200Z,18.48
2023-03-31T07:56:38.186Z,26.07
2023-03-31T08:01:41.197Z,22.70
2023-03-31T08:06:45.884Z,21.67
2023-03-31T08:11:48.836Z,20.37
2023-03-31T08:16:53.353Z,22.13
2023-03-31T08:21:57.603Z,26.55
2023-03-31T08:27:00.393Z,27.17
2023-03-31T08:32:03.407Z,26.90
2023-03-31T08:37:07.763Z,34.83
2023-03-31T08:42:16.633Z,29.48
2023-03-31T08:47:21.531Z,36.63
2023-03-31T08:52:28.344Z,27.05
2023-03-31T08:57:34.653Z,35.53
2023-03-31T09:02:48.626Z,30.05
2023-03-31T09:08:00.360Z,31.50
2023-03-31T09:13:12.442Z,31.45
2023-03-31T09:18:19.061Z,29.00
2023-03-31T09:23:27.934Z,36.00
2023-03-31T09:28:32.851Z,27.65
2023-03-31T09:33:35.761Z,35.28
2023-03-31T09:38:41.043Z,32.60
2023-03-31T09:43:46.424Z,22.83
2023-03-31T09:48:56.216Z,25.37
2023-03-31T09:54:04.241Z,27.10
2023-03-31T09:59:07.117Z,33.20
2023-03-31T10:04:10.444Z,25.77
2023-03-31T10:09:14.916Z,25.77
2023-03-31T10:14:17.784Z,26.05
2023-03-31T10:19:23.065Z,25.00
2023-03-31T10:24:28.728Z,16.50
2023-03-31T10:29:33.158Z,21.05
2023-03-31T10:34:37.196Z,24.40
2023-03-31T10:39:41.575Z,29.67
2023-03-31T10:44:44.440Z,34.15
2023-03-31T10:49:50.656Z,29.45
2023-03-31T10:54:59.371Z,20.47
2023-03-31T11:00:13.448Z,32.08
2023-03-31T11:05:18.362Z,25.87
2023-03-31T11:10:35.881Z,28.08
2023-03-31T11:15:42.757Z,25.17
2023-03-31T11:20:53.710Z,19.92
2023-03-31T11:26:02.187Z,22.88
2023-03-31T11:31:18.030Z,27.05
2023-03-31T11:36:31.070Z,17.10
2023-03-31T11:41:38.779Z,17.35
2023-03-31T11:46:45.355Z,17.02
2023-03-31T11:51:53.072Z,18.95
2023-03-31T11:56:57.839Z,16.60
2023-03-31T12:02:06.272Z,23.43
2023-03-31T12:07:19.050Z,18.27
2023-03-31T12:12:24.285Z,15.60
2023-03-31T12:17:29.242Z,15.77
2023-03-31T12:22:34.405Z,14.80
2023-03-31T12:27:41.749Z,13.05
2023-03-31T12:32:47.729Z,12.07
2023-03-31T12:38:05.319Z,8.57
2023-03-31T12:43:36.360Z,11.90
2023-03-31T12:48:54.163Z,14.27
2023-03-31T12:54:08.869Z,27.37
2023-03-31T12:59:26.826Z,13.60
2023-03-31T13:04:30.195Z,8.27
2023-03-31T13:09:52.944Z,9.20
2023-03-31T13:20:32.255Z,45.80
2023-03-31T13:25:46.164Z,18.83
2023-03-31T13:30:52.568Z,10.13
2023-03-31T13:36:02.936Z,10.82
2023-03-31T13:41:14.973Z,17.98
2023-03-31T13:46:34.525Z,14.50
2023-03-31T13:51:47.047Z,13.00
2023-03-31T13:56:59.909Z,18.80
2023-03-31T14:02:18.520Z,12.48
2023-03-31T14:07:22.751Z,12.80
2023-03-31T14:12:32.481Z,9.98
2023-03-31T14:17:38.664Z,12.65
2023-03-31T14:22:48.775Z,14.10
2023-03-31T14:28:00.988Z,14.05
2023-03-31T14:33:14.903Z,15.47
2023-03-31T14:38:20.045Z,12.57
2023-03-31T14:43:24.321Z,15.85
2023-03-31T14:48:29.942Z,14.15
2023-03-31T14:53:32.763Z,13.43
2023-03-31T14:58:37.382Z,4.80
2023-03-31T15:03:42.585Z,7.03
2023-03-31T15:08:45.844Z,3.77
2023-03-31T15:14:03.316Z,8.57
2023-03-31T15:19:13.768Z,8.32
2023-03-31T15:24:16.687Z,6.63
2023-03-31T15:29:21.993Z,8.07
2023-03-31T15:34:28.885Z,5.50
2023-03-31T15:39:33.598Z,10.18
2023-03-31T15:44:39.585Z,13.50
2023-03-31T15:49:51.215Z,13.55
2023-03-31T15:54:54.209Z,11.73
2023-03-31T15:59:57.906Z,10.93
2023-03-31T16:05:06.098Z,11.00
2023-03-31T16:10:18.650Z,20.45
2023-03-31T16:15:25.091Z,11.88
2023-03-31T16:20:37.111Z,15.53
2023-03-31T16:25:41.704Z,11.93
2023-03-31T16:30:46.157Z,12.90
2023-03-31T16:35:53.422Z,19.70
2023-03-31T16:40:58.159Z,13.60
2023-03-31T16:46:03.424Z,11.65
2023-03-31T16:51:07.861Z,14.50
2023-03-31T16:56:11.892Z,14.05
2023-03-31T17:01:15.024Z,13.45
2023-03-31T17:06:19.359Z,11.73
2023-03-31T17:11:22.746Z,15.55
2023-03-31T17:16:32.958Z,19.30
2023-03-31T17:21:49.595Z,15.27
2023-03-31T17:26:52.532Z,17.15
2023-03-31T17:31:55.664Z,16.73
2023-03-31T17:37:00.142Z,20.17
2023-03-31T17:42:03.922Z,17.55
2023-03-31T17:47:06.857Z,17.27
2023-03-31T17:52:11.682Z,17.23
2023-03-31T17:57:14.549Z,18.67
2023-03-31T18:02:17.573Z,22.45
2023-03-31T18:07:23.223Z,19.98
2023-03-31T18:12:26.286Z,22.90
2023-03-31T18:17:29.934Z,25.10
2023-03-31T18:22:37.025Z,23.08
2023-03-31T18:27:39.836Z,29.20
2023-03-31T18:32:43.586Z,19.60
2023-03-31T18:37:47.872Z,25.38
2023-03-31T18:42:51.322Z,17.98
2023-03-31T18:47:54.625Z,19.33
2023-03-31T18:52:58.861Z,17.48
2023-03-31T18:58:01.826Z,13.90
2023-03-31T19:03:04.825Z,21.43
2023-03-31T19:08:09.236Z,23.83
2023-03-31T19:13:14.574Z,8.45
2023-03-31T19:18:17.399Z,11.53
2023-03-31T19:23:21.669Z,18.47
2023-03-31T19:28:25.708Z,26.77
2023-03-31T19:33:28.660Z,26.40
2023-03-31T19:38:36.436Z,21.67
2023-03-31T19:43:39.504Z,12.38
2023-03-31T19:48:42.489Z,14.88
2023-03-31T19:53:47.153Z,16.63
2023-03-31T19:58:50.323Z,15.27
2023-03-31T20:03:53.732Z,19.13
2023-03-31T20:08:59.435Z,14.55
2023-03-31T20:14:02.699Z,15.27
2023-03-31T20:19:06.960Z,18.25
2023-03-31T20:24:16.312Z,18.50
2023-03-31T20:29:19.179Z,25.85
2023-03-31T20:34:22.759Z,28.88
2023-03-31T20:39:27.125Z,24.30
2023-03-31T20:44:30.051Z,27.35
2023-03-31T20:49:32.861Z,26.27
2023-03-31T20:54:37.428Z,28.85
2023-03-31T20:59:40.501Z,30.90
2023-03-31T21:04:43.392Z,34.65
2023-03-31T21:09:47.652Z,32.63
2023-03-31T21:14:50.540Z,31.48
2023-03-31T21:19:53.420Z,30.02
2023-03-31T21:24:57.696Z,40.08
2023-03-31T21:30:00.574Z,43.40
2023-03-31T21:35:03.472Z,48.35
2023-03-31T21:40:09.357Z,50.70
2023-03-31T21:45:13.482Z,44.05
2023-03-31T21:50:16.686Z,49.97
2023-03-31T21:55:20.897Z,60.17
2023-03-31T22:00:23.825Z,80.82
2023-03-31T22:05:27.231Z,104.22
2023-03-31T22:10:31.531Z,97.63
2023-03-31T22:15:34.569Z,92.63
2023-03-31T22:20:37.778Z,69.93
2023-03-31T22:25:42.165Z,61.53
2023-03-31T22:30:45.094Z,81.75
2023-03-31T22:35:49.277Z,82.40
2023-03-31T22:40:53.685Z,83.13
2023-03-31T22:45:56.638Z,102.60
2023-03-31T22:50:59.677Z,100.80
2023-03-31T22:56:09.929Z,105.88
2023-03-31T23:01:15.742Z,94.97
2023-03-31T23:06:18.946Z,87.00
2023-03-31T23:11:23.077Z,84.00
2023-03-31T23:16:27.227Z,94.25
2023-03-31T23:21:30.717Z,93.60
2023-03-31T23:26:35.684Z,86.03
2023-03-31T23:31:38.610Z,93.38
2023-03-31T23:36:41.565Z,85.97
2023-03-31T23:41:45.814Z,98.35
2023-03-31T23:46:48.636Z,89.30
2023-03-31T23:51:51.807Z,78.45
2023-03-31T23:56:56.347Z,77.93
